BAW5RK LEMD-LIRF
Flight info
| Callsign | BAW5RK |
|---|---|
| Flight time | 1h 55m |
| Altitude | 40000 |
| Route | PINAR N870 BCN N725 OSPOK/N0485F410 DCT NOLVI DCT ORKUM/N0482F400 DCT ELSAG DCT ALG DCT TINTO DCT VALMA |
| Aircraft | A359/H-SDE2E3GHIJ3J4J5LM1ORWXY/LB1D1 |
Departure
| Time | 2026-05-06 13:23 |
|---|---|
| Airport | Adolfo Suárez Madrid–Barajas Airport (LEMD) |
Arrival
| Time | 2026-05-06 15:19 |
|---|---|
| Airport | Rome–Fiumicino Leonardo da Vinci International Airport (LIRF) |
| Time | Latitude | Longitude | Altitude | Speed | Heading |
|---|---|---|---|---|---|
| 2026-05-06 12:38 | 40.49271 | -3.56327 | 1970 ft | 0 kts | 271° |
| 2026-05-06 13:16 | 40.49272 | -3.56364 | 1971 ft | 5 kts | 272° |
| 2026-05-06 13:17 | 40.49309 | -3.56437 | 1978 ft | 15 kts | 331° |
| 2026-05-06 13:17 | 40.49410 | -3.56451 | 1973 ft | 15 kts | 0° |
| 2026-05-06 13:17 | 40.49523 | -3.56451 | 1977 ft | 17 kts | 0° |
| 2026-05-06 13:17 | 40.49647 | -3.56452 | 1975 ft | 18 kts | 359° |
| 2026-05-06 13:18 | 40.49779 | -3.56455 | 1977 ft | 19 kts | 359° |
| 2026-05-06 13:18 | 40.49918 | -3.56458 | 1978 ft | 21 kts | 0° |
| 2026-05-06 13:18 | 40.50019 | -3.56389 | 1975 ft | 14 kts | 75° |
| 2026-05-06 13:18 | 40.50026 | -3.56247 | 1967 ft | 12 kts | 88° |
| 2026-05-06 13:19 | 40.50028 | -3.56157 | 1965 ft | 9 kts | 88° |
| 2026-05-06 13:19 | 40.50029 | -3.56147 | 1965 ft | 0 kts | 88° |
| 2026-05-06 13:20 | 40.50029 | -3.56132 | 1965 ft | 5 kts | 88° |
| 2026-05-06 13:20 | 40.50032 | -3.56044 | 1965 ft | 13 kts | 85° |
| 2026-05-06 13:20 | 40.50078 | -3.55938 | 1969 ft | 14 kts | 31° |
| 2026-05-06 13:20 | 40.50139 | -3.55921 | 1966 ft | 0 kts | 1° |
| 2026-05-06 13:22 | 40.50282 | -3.55916 | 1967 ft | 50 kts | 1° |
| 2026-05-06 13:23 | 40.50845 | -3.55926 | 1972 ft | 110 kts | 0° |
| 2026-05-06 13:23 | 40.51793 | -3.55933 | 1960 ft | 160 kts | 0° |
| 2026-05-06 13:23 | 40.52995 | -3.55928 | 2257 ft | 180 kts | 359° |
| 2026-05-06 13:23 | 40.54283 | -3.55969 | 2785 ft | 189 kts | 358° |
| 2026-05-06 13:24 | 40.55642 | -3.56201 | 3165 ft | 208 kts | 356° |
| 2026-05-06 13:24 | 40.57100 | -3.56096 | 3773 ft | 213 kts | 6° |
| 2026-05-06 13:24 | 40.58567 | -3.55897 | 4592 ft | 211 kts | 5° |
| 2026-05-06 13:24 | 40.60020 | -3.55676 | 5412 ft | 210 kts | 6° |
| 2026-05-06 13:25 | 40.61493 | -3.55419 | 6073 ft | 222 kts | 7° |
| 2026-05-06 13:25 | 40.63097 | -3.55120 | 6511 ft | 242 kts | 7° |
| 2026-05-06 13:25 | 40.64799 | -3.54787 | 7202 ft | 251 kts | 8° |
| 2026-05-06 13:25 | 40.66548 | -3.54437 | 8010 ft | 257 kts | 8° |
| 2026-05-06 13:26 | 40.68333 | -3.54075 | 8838 ft | 261 kts | 8° |
| 2026-05-06 13:26 | 40.70088 | -3.53389 | 9645 ft | 268 kts | 28° |
| 2026-05-06 13:26 | 40.71441 | -3.51716 | 10518 ft | 271 kts | 53° |
| 2026-05-06 13:26 | 40.72515 | -3.49661 | 11443 ft | 273 kts | 56° |
| 2026-05-06 13:27 | 40.73554 | -3.47596 | 12304 ft | 275 kts | 56° |
| 2026-05-06 13:27 | 40.74627 | -3.45494 | 13112 ft | 279 kts | 55° |
| 2026-05-06 13:27 | 40.75726 | -3.43359 | 13848 ft | 284 kts | 55° |
| 2026-05-06 13:27 | 40.76851 | -3.41180 | 14558 ft | 290 kts | 54° |
| 2026-05-06 13:28 | 40.77998 | -3.38964 | 15269 ft | 295 kts | 54° |
| 2026-05-06 13:28 | 40.79168 | -3.36705 | 15973 ft | 301 kts | 54° |
| 2026-05-06 13:28 | 40.80356 | -3.34407 | 16696 ft | 305 kts | 54° |
| 2026-05-06 13:28 | 40.81544 | -3.32110 | 17349 ft | 309 kts | 53° |
| 2026-05-06 13:29 | 40.82766 | -3.29748 | 17978 ft | 314 kts | 53° |
| 2026-05-06 13:29 | 40.84008 | -3.27347 | 18585 ft | 319 kts | 53° |
| 2026-05-06 13:29 | 40.85176 | -3.24838 | 19196 ft | 324 kts | 62° |
| 2026-05-06 13:29 | 40.85936 | -3.22078 | 19790 ft | 328 kts | 73° |
| 2026-05-06 13:30 | 40.86521 | -3.19135 | 20354 ft | 333 kts | 75° |
| 2026-05-06 13:30 | 40.87095 | -3.16164 | 20935 ft | 336 kts | 75° |
| 2026-05-06 13:30 | 40.87680 | -3.13151 | 21476 ft | 340 kts | 74° |
| 2026-05-06 13:30 | 40.88275 | -3.10108 | 22027 ft | 344 kts | 75° |
| 2026-05-06 13:31 | 40.88875 | -3.07039 | 22581 ft | 347 kts | 75° |
| 2026-05-06 13:31 | 40.89484 | -3.03934 | 23086 ft | 351 kts | 74° |
| 2026-05-06 13:31 | 40.90092 | -3.00834 | 23593 ft | 354 kts | 75° |
| 2026-05-06 13:31 | 40.90720 | -2.97626 | 24106 ft | 357 kts | 75° |
| 2026-05-06 13:32 | 40.91346 | -2.94429 | 24574 ft | 361 kts | 75° |
| 2026-05-06 13:32 | 40.91977 | -2.91203 | 25039 ft | 365 kts | 75° |
| 2026-05-06 13:32 | 40.92615 | -2.87931 | 25483 ft | 369 kts | 75° |
| 2026-05-06 13:32 | 40.93260 | -2.84616 | 25885 ft | 374 kts | 75° |
| 2026-05-06 13:33 | 40.93911 | -2.81268 | 26309 ft | 378 kts | 75° |
| 2026-05-06 13:33 | 40.94568 | -2.77878 | 26739 ft | 382 kts | 75° |
| 2026-05-06 13:33 | 40.95231 | -2.74456 | 27136 ft | 387 kts | 75° |
| 2026-05-06 13:33 | 40.95893 | -2.71032 | 27458 ft | 393 kts | 75° |
| 2026-05-06 13:34 | 40.96579 | -2.67484 | 27691 ft | 403 kts | 75° |
| 2026-05-06 13:34 | 40.97279 | -2.63851 | 27995 ft | 410 kts | 75° |
| 2026-05-06 13:34 | 40.97985 | -2.60179 | 28396 ft | 414 kts | 76° |
| 2026-05-06 13:34 | 40.98702 | -2.56461 | 28776 ft | 419 kts | 76° |
| 2026-05-06 13:35 | 40.99424 | -2.52702 | 29158 ft | 423 kts | 76° |
| 2026-05-06 13:35 | 41.00145 | -2.48921 | 29499 ft | 427 kts | 76° |
| 2026-05-06 13:35 | 41.00874 | -2.45085 | 29830 ft | 432 kts | 76° |
| 2026-05-06 13:35 | 41.01609 | -2.41213 | 30204 ft | 435 kts | 76° |
| 2026-05-06 13:36 | 41.02346 | -2.37320 | 30564 ft | 438 kts | 76° |
| 2026-05-06 13:36 | 41.03084 | -2.33451 | 30941 ft | 440 kts | 76° |
| 2026-05-06 13:36 | 41.03831 | -2.29509 | 31276 ft | 444 kts | 76° |
| 2026-05-06 13:36 | 41.04586 | -2.25513 | 31469 ft | 451 kts | 76° |
| 2026-05-06 13:37 | 41.05352 | -2.21448 | 31642 ft | 459 kts | 76° |
| 2026-05-06 13:37 | 41.06131 | -2.17314 | 31835 ft | 465 kts | 76° |
| 2026-05-06 13:37 | 41.06918 | -2.13125 | 32018 ft | 472 kts | 76° |
| 2026-05-06 13:37 | 41.07713 | -2.08870 | 32192 ft | 480 kts | 76° |
| 2026-05-06 13:38 | 41.08524 | -2.04546 | 32374 ft | 486 kts | 76° |
| 2026-05-06 13:38 | 41.09331 | -2.00233 | 32541 ft | 493 kts | 76° |
| 2026-05-06 13:38 | 41.10159 | -1.95784 | 32696 ft | 500 kts | 76° |
| 2026-05-06 13:38 | 41.10991 | -1.91292 | 33073 ft | 500 kts | 77° |
| 2026-05-06 13:39 | 41.11813 | -1.86848 | 33727 ft | 495 kts | 77° |
| 2026-05-06 13:39 | 41.12633 | -1.82401 | 33958 ft | 499 kts | 77° |
| 2026-05-06 13:39 | 41.13459 | -1.77907 | 34148 ft | 504 kts | 77° |
| 2026-05-06 13:39 | 41.14290 | -1.73378 | 34450 ft | 506 kts | 77° |
| 2026-05-06 13:40 | 41.15120 | -1.68835 | 34785 ft | 507 kts | 77° |
| 2026-05-06 13:40 | 41.15955 | -1.64274 | 35052 ft | 510 kts | 77° |
| 2026-05-06 13:40 | 41.16780 | -1.59756 | 35324 ft | 512 kts | 77° |
| 2026-05-06 13:40 | 41.17619 | -1.55153 | 35568 ft | 514 kts | 77° |
| 2026-05-06 13:41 | 41.18459 | -1.50529 | 35822 ft | 516 kts | 77° |
| 2026-05-06 13:41 | 41.19300 | -1.45886 | 36069 ft | 519 kts | 77° |
| 2026-05-06 13:41 | 41.20145 | -1.41219 | 36313 ft | 520 kts | 77° |
| 2026-05-06 13:41 | 41.20989 | -1.36547 | 36510 ft | 523 kts | 77° |
| 2026-05-06 13:42 | 41.21837 | -1.31834 | 36706 ft | 525 kts | 77° |
| 2026-05-06 13:42 | 41.22683 | -1.27116 | 36969 ft | 525 kts | 77° |
| 2026-05-06 13:42 | 41.23527 | -1.22393 | 37266 ft | 525 kts | 77° |
| 2026-05-06 13:42 | 41.24357 | -1.17745 | 37447 ft | 526 kts | 77° |
| 2026-05-06 13:43 | 41.25198 | -1.13019 | 37495 ft | 526 kts | 77° |
| 2026-05-06 13:43 | 41.26040 | -1.08282 | 37713 ft | 527 kts | 77° |
| 2026-05-06 13:43 | 41.26878 | -1.03546 | 37933 ft | 527 kts | 77° |
| 2026-05-06 13:44 | 41.28551 | -0.94067 | 37983 ft | 526 kts | 77° |
| 2026-05-06 13:44 | 41.30216 | -0.84599 | 37979 ft | 526 kts | 77° |
| 2026-05-06 13:45 | 41.31860 | -0.75192 | 37981 ft | 526 kts | 77° |
| 2026-05-06 13:45 | 41.34326 | -0.60971 | 37981 ft | 526 kts | 77° |
| 2026-05-06 13:46 | 41.35326 | -0.51368 | 37984 ft | 524 kts | 90° |
| 2026-05-06 13:46 | 41.35365 | -0.41678 | 37981 ft | 523 kts | 92° |
| 2026-05-06 13:47 | 41.35264 | -0.32057 | 37965 ft | 524 kts | 92° |
| 2026-05-06 13:47 | 41.35157 | -0.22373 | 37962 ft | 523 kts | 92° |
| 2026-05-06 13:48 | 41.35060 | -0.12684 | 37962 ft | 524 kts | 92° |
| 2026-05-06 13:48 | 41.34963 | -0.02991 | 37959 ft | 524 kts | 92° |
| 2026-05-06 13:49 | 41.34858 | 0.06714 | 37966 ft | 525 kts | 94° |
| 2026-05-06 13:49 | 41.34744 | 0.16355 | 37973 ft | 524 kts | 94° |
| 2026-05-06 13:50 | 41.34626 | 0.26052 | 37970 ft | 524 kts | 94° |
| 2026-05-06 13:50 | 41.34498 | 0.35734 | 37961 ft | 523 kts | 94° |
| 2026-05-06 13:51 | 41.34356 | 0.45417 | 37962 ft | 523 kts | 94° |
| 2026-05-06 13:51 | 41.34205 | 0.55044 | 37964 ft | 524 kts | 94° |
| 2026-05-06 13:52 | 41.34044 | 0.64736 | 37951 ft | 524 kts | 94° |
| 2026-05-06 13:52 | 41.33882 | 0.74416 | 37953 ft | 524 kts | 94° |
| 2026-05-06 13:53 | 41.33714 | 0.84119 | 37937 ft | 524 kts | 94° |
| 2026-05-06 13:53 | 41.33536 | 0.93759 | 37942 ft | 525 kts | 95° |
| 2026-05-06 13:54 | 41.33346 | 1.03456 | 37940 ft | 525 kts | 95° |
| 2026-05-06 13:54 | 41.33150 | 1.13165 | 37950 ft | 525 kts | 95° |
| 2026-05-06 13:55 | 41.32943 | 1.22879 | 37947 ft | 525 kts | 95° |
| 2026-05-06 13:55 | 41.32733 | 1.32587 | 37941 ft | 525 kts | 95° |
| 2026-05-06 13:56 | 41.32516 | 1.42227 | 37939 ft | 525 kts | 95° |
| 2026-05-06 13:56 | 41.32285 | 1.51938 | 37939 ft | 525 kts | 95° |
| 2026-05-06 13:57 | 41.32090 | 1.60012 | 37948 ft | 525 kts | 95° |
| 2026-05-06 13:57 | 41.31846 | 1.69727 | 37951 ft | 525 kts | 95° |
| 2026-05-06 13:58 | 41.31554 | 1.81005 | 37946 ft | 525 kts | 96° |
| 2026-05-06 13:58 | 41.31333 | 1.89076 | 37958 ft | 525 kts | 96° |
| 2026-05-06 13:59 | 41.31061 | 1.98771 | 37957 ft | 525 kts | 96° |
| 2026-05-06 13:59 | 41.30758 | 2.08476 | 37955 ft | 523 kts | 98° |
| 2026-05-06 14:00 | 41.29324 | 2.19448 | 37961 ft | 517 kts | 106° |
| 2026-05-06 14:00 | 41.28045 | 2.27272 | 37963 ft | 517 kts | 107° |
| 2026-05-06 14:01 | 41.26481 | 2.36545 | 37951 ft | 517 kts | 107° |
| 2026-05-06 14:01 | 41.24911 | 2.45881 | 37952 ft | 517 kts | 107° |
| 2026-05-06 14:02 | 41.23092 | 2.56724 | 37953 ft | 517 kts | 107° |
| 2026-05-06 14:02 | 41.21789 | 2.64482 | 37950 ft | 518 kts | 107° |
| 2026-05-06 14:03 | 41.20210 | 2.73807 | 37950 ft | 518 kts | 107° |
| 2026-05-06 14:03 | 41.18622 | 2.83139 | 37943 ft | 518 kts | 107° |
| 2026-05-06 14:04 | 41.17025 | 2.92461 | 37938 ft | 518 kts | 107° |
| 2026-05-06 14:04 | 41.15426 | 3.01771 | 37948 ft | 518 kts | 108° |
| 2026-05-06 14:05 | 41.13817 | 3.11089 | 37945 ft | 518 kts | 108° |
| 2026-05-06 14:05 | 41.12214 | 3.20324 | 37949 ft | 517 kts | 108° |
| 2026-05-06 14:06 | 41.10595 | 3.29610 | 37939 ft | 517 kts | 108° |
| 2026-05-06 14:06 | 41.08970 | 3.38877 | 37947 ft | 516 kts | 108° |
| 2026-05-06 14:07 | 41.07334 | 3.48146 | 37943 ft | 516 kts | 108° |
| 2026-05-06 14:07 | 41.05695 | 3.57405 | 37943 ft | 516 kts | 108° |
| 2026-05-06 14:08 | 41.04060 | 3.66595 | 37945 ft | 516 kts | 108° |
| 2026-05-06 14:08 | 41.02404 | 3.75834 | 37943 ft | 516 kts | 108° |
| 2026-05-06 14:09 | 41.00743 | 3.85084 | 37936 ft | 516 kts | 108° |
| 2026-05-06 14:09 | 40.99071 | 3.94314 | 37939 ft | 516 kts | 108° |
| 2026-05-06 14:10 | 40.97398 | 4.03490 | 37939 ft | 516 kts | 108° |
| 2026-05-06 14:10 | 40.95713 | 4.12711 | 37948 ft | 515 kts | 108° |
| 2026-05-06 14:11 | 40.94022 | 4.21905 | 37955 ft | 514 kts | 108° |
| 2026-05-06 14:11 | 40.92325 | 4.31084 | 37959 ft | 514 kts | 109° |
| 2026-05-06 14:12 | 40.90637 | 4.40192 | 37959 ft | 514 kts | 109° |
| 2026-05-06 14:12 | 40.88932 | 4.49361 | 37959 ft | 514 kts | 109° |
| 2026-05-06 14:13 | 40.87223 | 4.58530 | 37956 ft | 514 kts | 109° |
| 2026-05-06 14:13 | 40.85662 | 4.67746 | 37960 ft | 517 kts | 102° |
| 2026-05-06 14:14 | 40.84701 | 4.77170 | 37958 ft | 518 kts | 101° |
| 2026-05-06 14:14 | 40.83840 | 4.86555 | 37950 ft | 518 kts | 101° |
| 2026-05-06 14:15 | 40.82973 | 4.96007 | 37946 ft | 518 kts | 101° |
| 2026-05-06 14:15 | 40.82091 | 5.05419 | 37958 ft | 517 kts | 101° |
| 2026-05-06 14:16 | 40.81195 | 5.14828 | 37951 ft | 516 kts | 101° |
| 2026-05-06 14:16 | 40.80296 | 5.24169 | 37948 ft | 517 kts | 101° |
| 2026-05-06 14:17 | 40.79384 | 5.33577 | 37959 ft | 517 kts | 101° |
| 2026-05-06 14:17 | 40.78466 | 5.42970 | 37959 ft | 516 kts | 101° |
| 2026-05-06 14:18 | 40.77547 | 5.52302 | 37949 ft | 516 kts | 102° |
| 2026-05-06 14:18 | 40.76615 | 5.61678 | 37958 ft | 516 kts | 102° |
| 2026-05-06 14:19 | 40.75675 | 5.71052 | 37952 ft | 515 kts | 102° |
| 2026-05-06 14:19 | 40.74728 | 5.80401 | 37956 ft | 515 kts | 102° |
| 2026-05-06 14:20 | 40.73774 | 5.89750 | 37950 ft | 514 kts | 102° |
| 2026-05-06 14:20 | 40.72824 | 5.99023 | 37945 ft | 514 kts | 102° |
| 2026-05-06 14:21 | 40.71858 | 6.08348 | 37945 ft | 513 kts | 102° |
| 2026-05-06 14:21 | 40.70879 | 6.17664 | 37947 ft | 513 kts | 102° |
| 2026-05-06 14:22 | 40.69897 | 6.26974 | 37945 ft | 513 kts | 102° |
| 2026-05-06 14:22 | 40.68912 | 6.36226 | 37948 ft | 513 kts | 102° |
| 2026-05-06 14:23 | 40.67915 | 6.45535 | 37958 ft | 513 kts | 102° |
| 2026-05-06 14:23 | 40.66910 | 6.54845 | 37954 ft | 513 kts | 102° |
| 2026-05-06 14:24 | 40.65902 | 6.64141 | 37969 ft | 513 kts | 102° |
| 2026-05-06 14:24 | 40.64888 | 6.73380 | 37968 ft | 513 kts | 102° |
| 2026-05-06 14:25 | 40.63859 | 6.82678 | 37960 ft | 514 kts | 102° |
| 2026-05-06 14:25 | 40.62825 | 6.91974 | 37964 ft | 513 kts | 102° |
| 2026-05-06 14:26 | 40.61781 | 7.01268 | 37964 ft | 513 kts | 102° |
| 2026-05-06 14:26 | 40.60731 | 7.10562 | 37965 ft | 513 kts | 102° |
| 2026-05-06 14:27 | 40.59681 | 7.19784 | 37965 ft | 513 kts | 103° |
| 2026-05-06 14:27 | 40.58617 | 7.29067 | 37966 ft | 514 kts | 103° |
| 2026-05-06 14:28 | 40.57544 | 7.38360 | 37959 ft | 514 kts | 103° |
| 2026-05-06 14:28 | 40.56644 | 7.47691 | 37957 ft | 518 kts | 95° |
| 2026-05-06 14:29 | 40.57110 | 7.57194 | 37961 ft | 522 kts | 86° |
| 2026-05-06 14:29 | 40.57933 | 7.66686 | 37968 ft | 523 kts | 86° |
| 2026-05-06 14:30 | 40.58791 | 7.76199 | 37969 ft | 523 kts | 86° |
| 2026-05-06 14:30 | 40.59611 | 7.85643 | 37956 ft | 523 kts | 86° |
| 2026-05-06 14:31 | 40.60412 | 7.95166 | 37955 ft | 523 kts | 86° |
| 2026-05-06 14:31 | 40.61203 | 8.04687 | 37965 ft | 523 kts | 86° |
| 2026-05-06 14:32 | 40.61988 | 8.14199 | 37968 ft | 522 kts | 86° |
| 2026-05-06 14:32 | 40.62900 | 8.23607 | 37967 ft | 524 kts | 78° |
| 2026-05-06 14:33 | 40.65365 | 8.32669 | 37963 ft | 526 kts | 69° |
| 2026-05-06 14:33 | 40.68182 | 8.41568 | 37960 ft | 527 kts | 68° |
| 2026-05-06 14:34 | 40.71034 | 8.50459 | 37958 ft | 527 kts | 68° |
| 2026-05-06 14:34 | 40.73855 | 8.59375 | 37954 ft | 526 kts | 69° |
| 2026-05-06 14:35 | 40.76623 | 8.68227 | 37962 ft | 525 kts | 69° |
| 2026-05-06 14:35 | 40.79385 | 8.77097 | 37966 ft | 514 kts | 69° |
| 2026-05-06 14:36 | 40.82053 | 8.85687 | 37965 ft | 499 kts | 69° |
| 2026-05-06 14:36 | 40.84668 | 8.94141 | 37971 ft | 497 kts | 69° |
| 2026-05-06 14:37 | 40.87258 | 9.02536 | 37957 ft | 497 kts | 69° |
| 2026-05-06 14:37 | 40.89857 | 9.10982 | 37932 ft | 496 kts | 70° |
| 2026-05-06 14:38 | 40.91155 | 9.15209 | 37699 ft | 495 kts | 70° |
| 2026-05-06 14:38 | 40.92447 | 9.19426 | 37449 ft | 496 kts | 70° |
| 2026-05-06 14:38 | 40.93744 | 9.23663 | 37205 ft | 496 kts | 70° |
| 2026-05-06 14:38 | 40.95037 | 9.27895 | 36957 ft | 497 kts | 70° |
| 2026-05-06 14:39 | 40.96326 | 9.32123 | 36711 ft | 497 kts | 70° |
| 2026-05-06 14:39 | 40.97617 | 9.36365 | 36460 ft | 497 kts | 70° |
| 2026-05-06 14:39 | 40.98907 | 9.40611 | 36152 ft | 497 kts | 70° |
| 2026-05-06 14:39 | 41.00179 | 9.44808 | 35645 ft | 500 kts | 70° |
| 2026-05-06 14:40 | 41.01478 | 9.49101 | 35128 ft | 504 kts | 71° |
| 2026-05-06 14:40 | 41.02787 | 9.53429 | 34638 ft | 508 kts | 71° |
| 2026-05-06 14:40 | 41.04103 | 9.57786 | 34139 ft | 511 kts | 71° |
| 2026-05-06 14:40 | 41.05425 | 9.62165 | 33642 ft | 513 kts | 71° |
| 2026-05-06 14:41 | 41.06749 | 9.66559 | 33145 ft | 514 kts | 71° |
| 2026-05-06 14:41 | 41.08074 | 9.70967 | 32652 ft | 516 kts | 71° |
| 2026-05-06 14:41 | 41.09403 | 9.75395 | 32152 ft | 518 kts | 71° |
| 2026-05-06 14:41 | 41.10733 | 9.79838 | 31645 ft | 519 kts | 71° |
| 2026-05-06 14:42 | 41.12048 | 9.84236 | 31164 ft | 521 kts | 71° |
| 2026-05-06 14:42 | 41.13386 | 9.88719 | 30660 ft | 523 kts | 71° |
| 2026-05-06 14:42 | 41.14722 | 9.93204 | 30156 ft | 524 kts | 71° |
| 2026-05-06 14:42 | 41.16076 | 9.97755 | 29654 ft | 524 kts | 71° |
| 2026-05-06 14:43 | 41.17408 | 10.02237 | 29154 ft | 520 kts | 71° |
| 2026-05-06 14:43 | 41.18713 | 10.06633 | 28661 ft | 516 kts | 70° |
| 2026-05-06 14:43 | 41.20018 | 10.11039 | 28149 ft | 507 kts | 70° |
| 2026-05-06 14:43 | 41.21304 | 10.15384 | 27663 ft | 505 kts | 70° |
| 2026-05-06 14:44 | 41.22581 | 10.19712 | 27151 ft | 502 kts | 70° |
| 2026-05-06 14:44 | 41.23847 | 10.24012 | 26650 ft | 497 kts | 70° |
| 2026-05-06 14:44 | 41.25096 | 10.28271 | 26178 ft | 493 kts | 70° |
| 2026-05-06 14:45 | 41.27566 | 10.36684 | 25326 ft | 478 kts | 70° |
| 2026-05-06 14:45 | 41.28750 | 10.40716 | 24872 ft | 458 kts | 70° |
| 2026-05-06 14:45 | 41.29884 | 10.44588 | 24418 ft | 440 kts | 70° |
| 2026-05-06 14:45 | 41.30969 | 10.48303 | 23949 ft | 423 kts | 70° |
| 2026-05-06 14:46 | 41.31997 | 10.51829 | 23509 ft | 407 kts | 70° |
| 2026-05-06 14:46 | 41.33002 | 10.55286 | 23055 ft | 393 kts | 70° |
| 2026-05-06 14:46 | 41.33969 | 10.58618 | 22596 ft | 380 kts | 70° |
| 2026-05-06 14:46 | 41.34908 | 10.61861 | 22155 ft | 377 kts | 70° |
| 2026-05-06 14:47 | 41.35850 | 10.65124 | 21748 ft | 377 kts | 70° |
| 2026-05-06 14:47 | 41.36788 | 10.68370 | 21383 ft | 374 kts | 70° |
| 2026-05-06 14:47 | 41.37714 | 10.71578 | 21032 ft | 370 kts | 70° |
| 2026-05-06 14:47 | 41.38620 | 10.74721 | 20686 ft | 366 kts | 70° |
| 2026-05-06 14:48 | 41.39529 | 10.77875 | 20336 ft | 364 kts | 70° |
| 2026-05-06 14:48 | 41.40422 | 10.81000 | 19987 ft | 359 kts | 71° |
| 2026-05-06 14:48 | 41.41309 | 10.84103 | 19634 ft | 357 kts | 70° |
| 2026-05-06 14:48 | 41.42195 | 10.87181 | 19409 ft | 355 kts | 70° |
| 2026-05-06 14:49 | 41.43079 | 10.90248 | 19212 ft | 353 kts | 70° |
| 2026-05-06 14:49 | 41.43948 | 10.93298 | 19007 ft | 351 kts | 71° |
| 2026-05-06 14:49 | 41.44817 | 10.96334 | 18805 ft | 350 kts | 70° |
| 2026-05-06 14:49 | 41.45685 | 10.99360 | 18605 ft | 349 kts | 70° |
| 2026-05-06 14:50 | 41.46549 | 11.02379 | 18408 ft | 347 kts | 70° |
| 2026-05-06 14:50 | 41.47409 | 11.05383 | 18214 ft | 346 kts | 70° |
| 2026-05-06 14:50 | 41.48253 | 11.08335 | 18001 ft | 345 kts | 71° |
| 2026-05-06 14:50 | 41.49096 | 11.11314 | 17809 ft | 343 kts | 71° |
| 2026-05-06 14:51 | 41.49932 | 11.14285 | 17610 ft | 341 kts | 71° |
| 2026-05-06 14:51 | 41.50763 | 11.17244 | 17421 ft | 340 kts | 71° |
| 2026-05-06 14:51 | 41.51592 | 11.20195 | 17209 ft | 339 kts | 71° |
| 2026-05-06 14:51 | 41.52411 | 11.23113 | 17002 ft | 331 kts | 71° |
| 2026-05-06 14:52 | 41.53209 | 11.25955 | 16796 ft | 323 kts | 71° |
| 2026-05-06 14:52 | 41.53985 | 11.28733 | 16582 ft | 315 kts | 71° |
| 2026-05-06 14:52 | 41.54745 | 11.31447 | 16402 ft | 309 kts | 71° |
| 2026-05-06 14:52 | 41.55494 | 11.34131 | 16249 ft | 308 kts | 71° |
| 2026-05-06 14:53 | 41.56239 | 11.36802 | 16109 ft | 307 kts | 71° |
| 2026-05-06 14:53 | 41.56972 | 11.39428 | 15951 ft | 306 kts | 71° |
| 2026-05-06 14:53 | 41.57712 | 11.42083 | 15800 ft | 305 kts | 71° |
| 2026-05-06 14:53 | 41.58459 | 11.44733 | 15649 ft | 305 kts | 70° |
| 2026-05-06 14:54 | 41.59209 | 11.47379 | 15500 ft | 304 kts | 70° |
| 2026-05-06 14:54 | 41.59955 | 11.50020 | 15353 ft | 303 kts | 70° |
| 2026-05-06 14:54 | 41.60696 | 11.52649 | 15199 ft | 302 kts | 70° |
| 2026-05-06 14:54 | 41.61436 | 11.55274 | 15056 ft | 301 kts | 70° |
| 2026-05-06 14:55 | 41.62173 | 11.57892 | 14899 ft | 301 kts | 70° |
| 2026-05-06 14:55 | 41.62909 | 11.60507 | 14744 ft | 300 kts | 70° |
| 2026-05-06 14:55 | 41.63632 | 11.63081 | 14598 ft | 300 kts | 70° |
| 2026-05-06 14:55 | 41.64362 | 11.65684 | 14451 ft | 299 kts | 70° |
| 2026-05-06 14:56 | 41.65088 | 11.68274 | 14304 ft | 297 kts | 70° |
| 2026-05-06 14:56 | 41.65812 | 11.70861 | 14150 ft | 297 kts | 70° |
| 2026-05-06 14:56 | 41.66536 | 11.73447 | 13913 ft | 297 kts | 70° |
| 2026-05-06 14:56 | 41.67257 | 11.76027 | 13600 ft | 295 kts | 70° |
| 2026-05-06 14:57 | 41.67972 | 11.78585 | 13334 ft | 294 kts | 70° |
| 2026-05-06 14:57 | 41.68685 | 11.81142 | 13073 ft | 293 kts | 70° |
| 2026-05-06 14:57 | 41.69395 | 11.83688 | 12831 ft | 292 kts | 70° |
| 2026-05-06 14:57 | 41.70103 | 11.86232 | 12578 ft | 291 kts | 70° |
| 2026-05-06 14:58 | 41.70798 | 11.88721 | 12331 ft | 290 kts | 70° |
| 2026-05-06 14:58 | 41.71499 | 11.91250 | 12105 ft | 288 kts | 70° |
| 2026-05-06 14:58 | 41.72339 | 11.93678 | 11873 ft | 287 kts | 57° |
| 2026-05-06 14:58 | 41.73688 | 11.95598 | 11647 ft | 283 kts | 31° |
| 2026-05-06 14:59 | 41.75476 | 11.96553 | 11428 ft | 275 kts | 5° |
| 2026-05-06 14:59 | 41.77366 | 11.96753 | 11213 ft | 271 kts | 358° |
| 2026-05-06 14:59 | 41.79254 | 11.96795 | 10979 ft | 271 kts | 357° |
| 2026-05-06 14:59 | 41.81138 | 11.96814 | 10757 ft | 271 kts | 357° |
| 2026-05-06 15:00 | 41.83019 | 11.96823 | 10529 ft | 270 kts | 357° |
| 2026-05-06 15:00 | 41.84867 | 11.96823 | 10306 ft | 269 kts | 356° |
| 2026-05-06 15:00 | 41.86738 | 11.96818 | 10087 ft | 268 kts | 357° |
| 2026-05-06 15:00 | 41.88593 | 11.96807 | 9847 ft | 264 kts | 357° |
| 2026-05-06 15:01 | 41.90401 | 11.96791 | 9610 ft | 257 kts | 357° |
| 2026-05-06 15:01 | 41.92169 | 11.96770 | 9399 ft | 251 kts | 357° |
| 2026-05-06 15:01 | 41.93907 | 11.96742 | 9182 ft | 249 kts | 357° |
| 2026-05-06 15:01 | 41.95633 | 11.96707 | 8981 ft | 248 kts | 357° |
| 2026-05-06 15:02 | 41.97336 | 11.96665 | 8782 ft | 248 kts | 356° |
| 2026-05-06 15:02 | 41.99053 | 11.96603 | 8579 ft | 246 kts | 354° |
| 2026-05-06 15:02 | 42.00741 | 11.96297 | 8386 ft | 244 kts | 348° |
| 2026-05-06 15:02 | 42.02392 | 11.95776 | 8179 ft | 243 kts | 341° |
| 2026-05-06 15:03 | 42.03987 | 11.95069 | 7988 ft | 241 kts | 339° |
| 2026-05-06 15:03 | 42.05562 | 11.94335 | 7765 ft | 241 kts | 339° |
| 2026-05-06 15:03 | 42.07145 | 11.93589 | 7581 ft | 240 kts | 339° |
| 2026-05-06 15:03 | 42.08714 | 11.92839 | 7383 ft | 239 kts | 339° |
| 2026-05-06 15:04 | 42.10283 | 11.92084 | 7211 ft | 239 kts | 339° |
| 2026-05-06 15:04 | 42.11844 | 11.91333 | 7030 ft | 238 kts | 339° |
| 2026-05-06 15:04 | 42.13378 | 11.90588 | 6866 ft | 237 kts | 339° |
| 2026-05-06 15:04 | 42.14906 | 11.89840 | 6691 ft | 231 kts | 339° |
| 2026-05-06 15:05 | 42.16399 | 11.89103 | 6537 ft | 228 kts | 339° |
| 2026-05-06 15:05 | 42.17888 | 11.88365 | 6365 ft | 228 kts | 339° |
| 2026-05-06 15:05 | 42.19373 | 11.87625 | 6212 ft | 227 kts | 339° |
| 2026-05-06 15:05 | 42.20855 | 11.86882 | 6048 ft | 226 kts | 339° |
| 2026-05-06 15:06 | 42.22338 | 11.86159 | 5989 ft | 228 kts | 342° |
| 2026-05-06 15:06 | 42.23856 | 11.85904 | 5982 ft | 211 kts | 4° |
| 2026-05-06 15:06 | 42.25174 | 11.86450 | 5981 ft | 195 kts | 32° |
| 2026-05-06 15:06 | 42.26100 | 11.87726 | 5984 ft | 191 kts | 63° |
| 2026-05-06 15:07 | 42.26412 | 11.89426 | 5989 ft | 187 kts | 94° |
| 2026-05-06 15:07 | 42.26055 | 11.91068 | 5991 ft | 183 kts | 123° |
| 2026-05-06 15:07 | 42.25166 | 11.92263 | 5999 ft | 180 kts | 144° |
| 2026-05-06 15:07 | 42.24158 | 11.93263 | 5990 ft | 180 kts | 146° |
| 2026-05-06 15:08 | 42.23146 | 11.94258 | 5994 ft | 180 kts | 145° |
| 2026-05-06 15:08 | 42.22138 | 11.95266 | 5990 ft | 180 kts | 144° |
| 2026-05-06 15:08 | 42.21132 | 11.96278 | 5993 ft | 181 kts | 144° |
| 2026-05-06 15:08 | 42.20133 | 11.97293 | 5987 ft | 180 kts | 144° |
| 2026-05-06 15:09 | 42.19130 | 11.98315 | 5986 ft | 181 kts | 144° |
| 2026-05-06 15:09 | 42.18140 | 11.99323 | 5984 ft | 181 kts | 144° |
| 2026-05-06 15:09 | 42.17137 | 12.00345 | 5935 ft | 181 kts | 144° |
| 2026-05-06 15:09 | 42.16149 | 12.01355 | 5668 ft | 179 kts | 144° |
| 2026-05-06 15:10 | 42.15146 | 12.02371 | 5348 ft | 182 kts | 144° |
| 2026-05-06 15:10 | 42.14132 | 12.03398 | 5045 ft | 182 kts | 144° |
| 2026-05-06 15:10 | 42.13135 | 12.04414 | 4844 ft | 178 kts | 144° |
| 2026-05-06 15:10 | 42.12149 | 12.05419 | 4650 ft | 178 kts | 143° |
| 2026-05-06 15:11 | 42.11162 | 12.06423 | 4452 ft | 178 kts | 143° |
| 2026-05-06 15:11 | 42.10192 | 12.07409 | 4250 ft | 177 kts | 143° |
| 2026-05-06 15:11 | 42.09204 | 12.08378 | 4172 ft | 175 kts | 148° |
| 2026-05-06 15:11 | 42.08132 | 12.09147 | 4094 ft | 172 kts | 154° |
| 2026-05-06 15:12 | 42.07090 | 12.09834 | 3959 ft | 162 kts | 154° |
| 2026-05-06 15:12 | 42.06097 | 12.10468 | 3895 ft | 153 kts | 155° |
| 2026-05-06 15:12 | 42.05140 | 12.11072 | 3906 ft | 155 kts | 155° |
| 2026-05-06 15:12 | 42.04138 | 12.11698 | 3907 ft | 161 kts | 155° |
| 2026-05-06 15:13 | 42.03116 | 12.12337 | 3897 ft | 162 kts | 155° |
| 2026-05-06 15:13 | 42.02094 | 12.12966 | 3905 ft | 163 kts | 156° |
| 2026-05-06 15:13 | 42.01066 | 12.13607 | 3907 ft | 167 kts | 155° |
| 2026-05-06 15:13 | 42.00008 | 12.14267 | 3895 ft | 168 kts | 155° |
| 2026-05-06 15:14 | 41.98949 | 12.14984 | 3896 ft | 168 kts | 150° |
| 2026-05-06 15:14 | 41.97917 | 12.15647 | 3886 ft | 168 kts | 161° |
| 2026-05-06 15:14 | 41.96805 | 12.16155 | 3827 ft | 169 kts | 163° |
| 2026-05-06 15:14 | 41.95690 | 12.16662 | 3786 ft | 170 kts | 162° |
| 2026-05-06 15:15 | 41.94563 | 12.17202 | 3597 ft | 173 kts | 161° |
| 2026-05-06 15:15 | 41.93433 | 12.17699 | 3276 ft | 168 kts | 167° |
| 2026-05-06 15:15 | 41.92295 | 12.18068 | 2943 ft | 166 kts | 168° |
| 2026-05-06 15:15 | 41.91168 | 12.18493 | 2687 ft | 168 kts | 162° |
| 2026-05-06 15:16 | 41.90096 | 12.19038 | 2453 ft | 161 kts | 162° |
| 2026-05-06 15:16 | 41.89075 | 12.19483 | 2195 ft | 152 kts | 163° |
| 2026-05-06 15:16 | 41.88091 | 12.19888 | 1944 ft | 148 kts | 163° |
| 2026-05-06 15:16 | 41.87097 | 12.20288 | 1567 ft | 151 kts | 163° |
| 2026-05-06 15:17 | 41.86083 | 12.20706 | 1162 ft | 153 kts | 161° |
| 2026-05-06 15:17 | 41.85104 | 12.21151 | 921 ft | 144 kts | 162° |
| 2026-05-06 15:17 | 41.84169 | 12.21522 | 693 ft | 140 kts | 163° |
| 2026-05-06 15:17 | 41.83228 | 12.21910 | 509 ft | 146 kts | 161° |
| 2026-05-06 15:18 | 41.82257 | 12.22345 | 269 ft | 146 kts | 162° |
| 2026-05-06 15:18 | 41.81283 | 12.22746 | 55 ft | 146 kts | 162° |
| 2026-05-06 15:18 | 41.80371 | 12.23132 | 26 ft | 127 kts | 162° |
| 2026-05-06 15:18 | 41.79634 | 12.23449 | 22 ft | 96 kts | 159° |
| 2026-05-06 15:19 | 41.79281 | 12.23600 | 24 ft | 34 kts | 158° |
| 2026-05-06 15:19 | 41.79095 | 12.23754 | 23 ft | 29 kts | 138° |
| 2026-05-06 15:19 | 41.79009 | 12.23870 | 20 ft | 11 kts | 133° |
| 2026-05-06 15:19 | 41.78990 | 12.23896 | 20 ft | 1 kts | 133° |
| 2026-05-06 15:20 | 41.78984 | 12.23905 | 22 ft | 1 kts | 133° |
| 2026-05-06 15:20 | 41.78977 | 12.23915 | 23 ft | 2 kts | 133° |
| 2026-05-06 15:20 | 41.78965 | 12.23931 | 23 ft | 3 kts | 133° |
| 2026-05-06 15:20 | 41.78952 | 12.23962 | 23 ft | 4 kts | 115° |
| 2026-05-06 15:21 | 41.78950 | 12.23985 | 22 ft | 2 kts | 102° |
| 2026-05-06 15:21 | 41.78942 | 12.24018 | 22 ft | 5 kts | 107° |
| 2026-05-06 15:21 | 41.78938 | 12.24060 | 24 ft | 2 kts | 67° |
| 2026-05-06 15:21 | 41.78952 | 12.24060 | 22 ft | 4 kts | 351° |
| 2026-05-06 15:22 | 41.79033 | 12.24021 | 22 ft | 18 kts | 341° |
| 2026-05-06 15:22 | 41.79159 | 12.23964 | 24 ft | 21 kts | 341° |
| 2026-05-06 15:22 | 41.79294 | 12.23926 | 26 ft | 12 kts | 22° |
| 2026-05-06 15:22 | 41.79348 | 12.24019 | 20 ft | 13 kts | 61° |
| 2026-05-06 15:23 | 41.79389 | 12.24074 | 21 ft | 0 kts | 30° |
| 2026-05-06 15:23 | 41.79391 | 12.24076 | 20 ft | 2 kts | 30° |
| 2026-05-06 15:23 | 41.79413 | 12.24090 | 20 ft | 5 kts | 26° |
| 2026-05-06 15:23 | 41.79453 | 12.24115 | 20 ft | 6 kts | 24° |
| 2026-05-06 15:24 | 41.79462 | 12.24121 | 21 ft | 2 kts | 24° |
| 2026-05-06 15:24 | 41.79463 | 12.24121 | 20 ft | 0 kts | 25° |
| 2026-05-06 15:38 | 41.79462 | 12.24121 | 25 ft | 0 kts | 25° |